Time;durP1;ratioP1;P1;durP2;ratioP2;P2;SDS_P1;SDS_P2;PMS_P1;PMS_P2;Temp;Humidity;BMP_temperature;BMP_pressure;BME280_temperature;BME280_humidity;BME280_pressure;Samples;Min_cycle;Max_cycle;Signal;HPM_P1;HPM_P2
2023/04/04 00:00:53;;;;;;;6.18;1.67;;;1.60;99.90;;;;;;4671977;28;9999913;-70
2023/04/04 00:03:28;;;;;;;3.95;1.33;;;1.60;99.90;;;;;;5016755;28;20034;-70
2023/04/04 00:05:57;;;;;;;2.78;1.33;;;1.50;99.90;;;;;;5012200;28;20475;-70
2023/04/04 00:08:27;;;;;;;3.05;1.40;;;1.50;99.90;;;;;;5017930;28;20034;-70
2023/04/04 00:11:09;;;;;;;2.95;1.73;;;1.50;99.90;;;;;;5016869;28;20037;-70
2023/04/04 00:13:42;;;;;;;2.75;1.38;;;1.50;99.90;;;;;;5012299;28;20026;-70
2023/04/04 00:16:13;;;;;;;4.75;1.60;;;1.50;99.90;;;;;;5011005;28;20091;-70
2023/04/04 00:18:40;;;;;;;2.65;1.75;;;1.40;99.90;;;;;;5013534;28;20083;-70
2023/04/04 00:21:08;;;;;;;4.82;1.50;;;1.40;99.90;;;;;;5015579;28;20026;-70
2023/04/04 00:23:41;;;;;;;4.15;1.60;;;1.30;99.90;;;;;;5012651;28;20153;-70
2023/04/04 00:26:16;;;;;;;2.72;1.40;;;1.30;99.90;;;;;;5023295;28;20116;-70
2023/04/04 00:28:49;;;;;;;2.92;1.55;;;1.30;99.90;;;;;;5011614;28;20053;-70
2023/04/04 00:31:16;;;;;;;1.73;1.30;;;1.40;99.90;;;;;;5013676;28;20033;-70
2023/04/04 00:33:42;;;;;;;3.10;1.50;;;1.40;99.90;;;;;;5015473;28;20037;-70
2023/04/04 00:36:08;;;;;;;6.38;1.60;;;1.40;99.90;;;;;;5017715;28;20036;-70
2023/04/04 00:38:41;;;;;;;3.50;1.55;;;1.40;99.90;;;;;;5020383;28;20095;-70
2023/04/04 00:41:16;;;;;;;1.53;0.97;;;1.40;99.90;;;;;;5023012;28;20029;-70
2023/04/04 00:43:50;;;;;;;2.15;1.52;;;1.30;99.90;;;;;;5023487;28;20034;-70
2023/04/04 00:46:25;;;;;;;2.30;1.30;;;1.20;99.90;;;;;;5022358;28;20711;-70
2023/04/04 00:48:59;;;;;;;3.17;1.40;;;1.10;99.90;;;;;;5010080;28;20038;-70
2023/04/04 00:51:27;;;;;;;2.25;1.30;;;1.10;99.90;;;;;;5013161;28;20034;-70
2023/04/04 00:53:53;;;;;;;2.70;1.50;;;1.10;99.90;;;;;;5022921;28;20367;-70
2023/04/04 00:56:19;;;;;;;3.65;1.30;;;1.10;99.90;;;;;;5018273;28;20095;-70
2023/04/04 00:58:54;;;;;;;2.80;1.30;;;1.00;99.90;;;;;;5012226;28;20033;-71
2023/04/04 01:01:27;;;;;;;2.42;1.48;;;0.90;99.90;;;;;;5020234;28;20045;-71
2023/04/04 01:03:59;;;;;;;2.88;1.40;;;0.90;99.90;;;;;;5016998;28;20029;-71
2023/04/04 01:06:29;;;;;;;2.47;1.33;;;0.90;99.90;;;;;;5011759;28;20038;-71
2023/04/04 01:08:56;;;;;;;2.83;1.20;;;0.80;99.90;;;;;;5018211;28;20553;-71
2023/04/04 01:11:26;;;;;;;3.42;1.42;;;0.80;99.90;;;;;;5021345;28;20025;-71
2023/04/04 01:13:53;;;;;;;2.03;1.33;;;0.80;99.90;;;;;;5009941;28;21853;-71
2023/04/04 01:16:30;;;;;;;3.38;1.70;;;0.80;99.90;;;;;;5020374;28;20473;-70
2023/04/04 01:19:05;;;;;;;2.33;1.20;;;0.80;99.90;;;;;;5018928;28;20026;-70
2023/04/04 01:21:37;;;;;;;4.28;1.38;;;0.90;99.90;;;;;;5018308;28;20034;-70
2023/04/04 01:24:08;;;;;;;2.58;1.20;;;0.90;99.90;;;;;;5022608;28;20041;-70
2023/04/04 01:26:40;;;;;;;1.98;1.50;;;0.90;99.90;;;;;;5012998;28;20030;-70
2023/04/04 01:29:12;;;;;;;2.28;1.23;;;0.80;99.90;;;;;;5018708;28;20108;-70
2023/04/04 01:31:43;;;;;;;1.67;1.00;;;0.80;99.90;;;;;;5013995;28;20034;-70
2023/04/04 01:34:35;;;;;;;3.10;1.25;;;0.70;99.90;;;;;;5009949;28;20338;-70
2023/04/04 01:37:25;;;;;;;1.25;1.02;;;0.60;99.90;;;;;;5010467;28;20037;-70
2023/04/04 01:40:16;;;;;;;2.67;1.50;;;0.50;99.90;;;;;;5016827;28;20730;-70
2023/04/04 01:42:54;;;;;;;3.10;1.20;;;0.50;99.90;;;;;;5019446;28;20041;-70
2023/04/04 01:45:28;;;;;;;4.18;1.58;;;0.50;99.90;;;;;;5008712;28;20045;-70
2023/04/04 01:47:59;;;;;;;2.75;1.40;;;0.50;99.90;;;;;;5014967;28;20037;-71
2023/04/04 01:50:31;;;;;;;4.63;1.90;;;0.50;99.90;;;;;;5010888;28;20552;-71
2023/04/04 01:53:02;;;;;;;3.53;1.50;;;0.50;99.90;;;;;;5008579;28;20529;-70
2023/04/04 01:55:33;;;;;;;4.25;1.77;;;0.50;99.90;;;;;;5011341;28;20037;-70
2023/04/04 01:58:06;;;;;;;2.65;1.50;;;0.50;99.90;;;;;;5019100;28;20180;-71
2023/04/04 02:00:33;;;;;;;;;;;0.60;99.90;;;;;;5012173;28;20041;-70
2023/04/04 02:03:03;;;;;;;4.75;1.50;;;0.70;99.90;;;;;;5021853;28;19931;-71
2023/04/04 02:05:29;;;;;;;5.47;1.88;;;0.80;99.90;;;;;;5015193;28;20120;-70
2023/04/04 02:08:02;;;;;;;5.18;1.83;;;0.90;99.90;;;;;;5013228;28;20994;-71
2023/04/04 02:10:31;;;;;;;3.95;1.98;;;1.00;99.90;;;;;;5020088;28;21778;-70
2023/04/04 02:13:00;;;;;;;4.50;1.75;;;1.00;99.90;;;;;;5014179;28;20033;-71
2023/04/04 02:15:36;;;;;;;3.75;1.80;;;1.00;99.90;;;;;;5020527;28;20044;-70
2023/04/04 02:18:04;;;;;;;5.88;1.95;;;1.00;99.90;;;;;;5011580;28;20042;-71
2023/04/04 02:20:37;;;;;;;3.83;1.92;;;1.00;99.90;;;;;;5018503;28;20041;-71
2023/04/04 02:23:09;;;;;;;5.07;1.75;;;1.00;99.90;;;;;;5018986;28;20041;-71
2023/04/04 02:25:45;;;;;;;5.43;2.00;;;1.00;99.90;;;;;;5016637;28;20072;-71
2023/04/04 02:28:14;;;;;;;4.20;1.95;;;1.10;99.90;;;;;;5008126;28;20046;-71
2023/04/04 02:30:49;;;;;;;2.95;1.83;;;1.10;99.90;;;;;;5007809;28;20037;-71
2023/04/04 02:33:18;;;;;;;4.07;1.75;;;1.10;99.90;;;;;;5013556;28;20046;-70
2023/04/04 02:35:47;;;;;;;3.08;1.77;;;1.10;99.90;;;;;;5018758;28;20045;-70
2023/04/04 02:38:22;;;;;;;3.05;1.60;;;1.10;99.90;;;;;;5015482;28;20038;-70
2023/04/04 02:40:49;;;;;;;4.88;2.03;;;1.10;99.90;;;;;;5009931;28;20049;-70
2023/04/04 02:43:20;;;;;;;2.42;1.60;;;1.10;99.90;;;;;;5017337;28;20113;-70
2023/04/04 02:45:53;;;;;;;5.95;1.92;;;1.10;99.90;;;;;;5013758;28;20068;-70
2023/04/04 02:48:24;;;;;;;5.75;2.10;;;1.10;99.90;;;;;;5015638;28;20034;-70
2023/04/04 02:50:50;;;;;;;5.43;1.90;;;1.00;99.90;;;;;;5009582;28;20034;-70
2023/04/04 02:53:16;;;;;;;3.78;1.90;;;1.00;99.90;;;;;;5015056;28;20030;-70
2023/04/04 02:55:44;;;;;;;5.95;2.30;;;1.00;99.90;;;;;;5013845;28;20104;-70
2023/04/04 02:58:11;;;;;;;6.70;2.38;;;1.00;99.90;;;;;;5014680;28;20070;-70
2023/04/04 03:00:46;;;;;;;4.93;2.00;;;1.00;99.90;;;;;;5016733;28;20029;-70
2023/04/04 03:03:18;;;;;;;6.25;2.50;;;1.00;99.90;;;;;;5020047;28;20033;-70
2023/04/04 03:05:50;;;;;;;5.38;2.50;;;1.00;99.90;;;;;;5023335;28;20033;-70
2023/04/04 03:08:24;;;;;;;4.67;2.07;;;1.00;99.90;;;;;;5015853;28;20527;-70
2023/04/04 03:10:57;;;;;;;4.47;2.45;;;1.00;99.90;;;;;;5028934;28;20038;-70
2023/04/04 03:13:23;;;;;;;4.47;2.22;;;1.00;99.90;;;;;;5017583;28;20037;-70
2023/04/04 03:15:50;;;;;;;4.80;2.60;;;1.00;99.90;;;;;;5019616;28;20537;-70
2023/04/04 03:18:25;;;;;;;4.97;2.30;;;1.00;99.90;;;;;;5011117;28;20046;-71
2023/04/04 03:20:58;;;;;;;5.55;1.98;;;1.00;99.90;;;;;;5012016;28;20037;-71
2023/04/04 03:23:27;;;;;;;6.25;2.55;;;0.90;99.90;;;;;;5012296;28;20180;-70
2023/04/04 03:25:55;;;;;;;2.95;2.20;;;0.90;99.90;;;;;;5011051;28;20112;-70
2023/04/04 03:28:30;;;;;;;5.18;2.83;;;0.90;99.90;;;;;;5019330;28;20609;-71
2023/04/04 03:31:11;;;;;;;9.88;2.63;;;0.90;99.90;;;;;;5014090;28;20049;-71
2023/04/04 03:33:37;;;;;;;5.30;2.50;;;0.80;99.90;;;;;;5017268;28;20042;-71
2023/04/04 03:36:15;;;;;;;5.03;2.33;;;0.80;99.90;;;;;;5018165;28;20033;-70
2023/04/04 03:38:49;;;;;;;7.72;2.53;;;0.90;99.90;;;;;;5026552;28;20022;-71
2023/04/04 03:41:22;;;;;;;6.50;2.75;;;0.90;99.90;;;;;;5014737;28;20038;-71
2023/04/04 03:43:48;;;;;;;;;;;0.90;99.90;;;;;;5024276;28;20142;-70
2023/04/04 03:46:19;;;;;;;4.93;2.45;;;0.90;99.90;;;;;;5013040;28;19968;-70
2023/04/04 03:48:52;;;;;;;5.63;2.50;;;0.90;99.90;;;;;;5015395;28;20025;-70
2023/04/04 03:51:26;;;;;;;6.75;2.70;;;0.90;99.90;;;;;;5019649;28;20034;-70
2023/04/04 03:54:00;;;;;;;5.22;2.80;;;0.90;99.90;;;;;;5015458;28;20029;-71
2023/04/04 03:56:36;;;;;;;7.82;3.20;;;0.90;99.90;;;;;;5013666;28;20034;-71
2023/04/04 03:59:08;;;;;;;5.30;2.85;;;0.90;99.90;;;;;;5026514;28;20560;-71
2023/04/04 04:01:35;;;;;;;6.43;2.88;;;0.90;99.90;;;;;;5010593;28;20018;-70
2023/04/04 04:04:08;;;;;;;5.88;2.88;;;0.90;99.90;;;;;;5013602;28;20078;-70
2023/04/04 04:06:41;;;;;;;;;;;0.80;99.90;;;;;;5016982;28;20502;-71
2023/04/04 04:09:11;;;;;;;6.45;3.30;;;0.80;99.90;;;;;;5013644;28;20330;-71
2023/04/04 04:11:43;;;;;;;5.28;3.15;;;0.70;99.90;;;;;;5015726;28;20032;-71
2023/04/04 04:14:13;;;;;;;7.20;3.35;;;0.70;99.90;;;;;;5018189;28;20044;-71
2023/04/04 04:16:44;;;;;;;5.97;3.28;;;0.70;99.90;;;;;;5010392;28;20022;-71
2023/04/04 04:19:12;;;;;;;9.82;3.92;;;0.70;99.90;;;;;;5011580;28;20116;-71
2023/04/04 04:21:44;;;;;;;5.30;3.58;;;0.70;99.90;;;;;;5005118;28;20113;-71
2023/04/04 04:24:17;;;;;;;9.82;3.78;;;0.70;99.90;;;;;;5014018;28;20041;-71
2023/04/04 04:26:48;;;;;;;7.80;3.67;;;0.70;99.90;;;;;;5013318;28;20025;-71
2023/04/04 04:29:19;;;;;;;6.03;3.30;;;0.70;99.90;;;;;;5018754;28;20029;-71
2023/04/04 04:31:52;;;;;;;7.00;3.42;;;0.70;99.90;;;;;;5017308;28;20026;-71
2023/04/04 04:34:21;;;;;;;;;;;0.70;99.90;;;;;;5014510;28;20099;-70
2023/04/04 04:36:50;;;;;;;7.25;3.53;;;0.60;99.90;;;;;;5011957;28;20382;-71
2023/04/04 04:39:20;;;;;;;8.43;3.55;;;0.60;99.90;;;;;;5010224;28;20078;-71
2023/04/04 04:41:53;;;;;;;10.40;3.53;;;0.60;99.90;;;;;;5017131;28;20229;-71
2023/04/04 04:44:22;;;;;;;;;;;0.60;99.90;;;;;;5019333;28;20140;-71
2023/04/04 04:46:56;;;;;;;8.70;3.53;;;0.70;99.90;;;;;;5017805;28;19986;-71
2023/04/04 04:49:31;;;;;;;7.20;3.00;;;0.70;99.90;;;;;;5008959;28;20107;-71
2023/04/04 04:52:06;;;;;;;5.70;2.90;;;0.70;99.90;;;;;;5009336;28;20092;-71
2023/04/04 04:54:38;;;;;;;6.82;3.05;;;0.60;99.90;;;;;;5009106;28;20025;-71
2023/04/04 04:57:11;;;;;;;7.20;3.17;;;0.70;99.90;;;;;;5014730;28;20034;-71
2023/04/04 04:59:47;;;;;;;6.40;3.45;;;0.70;99.90;;;;;;5016596;28;20041;-71
2023/04/04 05:02:20;;;;;;;5.53;2.78;;;0.70;99.90;;;;;;5010148;28;20413;-70
2023/04/04 05:04:46;;;;;;;5.95;2.75;;;0.70;99.90;;;;;;4998859;28;20564;-70
2023/04/04 05:07:12;;;;;;;6.35;2.55;;;0.70;99.90;;;;;;5004148;28;20026;-71
2023/04/04 05:09:38;;;;;;;5.28;2.60;;;0.80;99.90;;;;;;5016187;28;20107;-70
2023/04/04 05:12:09;;;;;;;8.07;2.90;;;0.70;99.90;;;;;;5012146;28;20021;-70
2023/04/04 05:14:38;;;;;;;8.75;2.80;;;0.80;99.90;;;;;;5010053;28;20034;-70
2023/04/04 05:17:05;;;;;;;6.35;3.00;;;0.80;99.90;;;;;;5010753;28;20124;-71
2023/04/04 05:19:31;;;;;;;7.43;2.42;;;0.80;99.90;;;;;;5012660;28;20038;-70
2023/04/04 05:21:57;;;;;;;6.20;2.83;;;0.80;99.90;;;;;;5012137;28;20497;-70
2023/04/04 05:24:27;;;;;;;6.72;2.67;;;0.80;99.90;;;;;;5006967;28;20049;-70
2023/04/04 05:27:00;;;;;;;3.38;2.30;;;0.80;99.90;;;;;;5013104;28;20159;-70
2023/04/04 05:29:33;;;;;;;6.28;2.47;;;0.80;99.90;;;;;;5008226;28;20034;-70
2023/04/04 05:32:01;;;;;;;5.43;2.63;;;0.80;99.90;;;;;;5013090;28;20112;-70
2023/04/04 05:34:27;;;;;;;9.50;3.05;;;0.90;99.90;;;;;;5012770;28;20029;-71
2023/04/04 05:36:58;;;;;;;8.77;3.33;;;0.90;99.90;;;;;;5016308;28;20588;-70
2023/04/04 05:39:24;;;;;;;7.90;3.13;;;1.00;99.90;;;;;;5010351;28;20045;-70
2023/04/04 05:41:50;;;;;;;6.20;3.15;;;1.00;99.90;;;;;;5014192;28;20021;-71
2023/04/04 05:44:22;;;;;;;6.88;3.20;;;1.00;99.90;;;;;;5011097;28;20448;-70
2023/04/04 05:46:55;;;;;;;9.32;3.78;;;1.10;99.90;;;;;;5008582;28;20116;-71
2023/04/04 05:49:21;;;;;;;;;;;1.20;99.90;;;;;;5006905;28;20029;-70
2023/04/04 05:51:49;;;;;;;5.65;3.10;;;1.20;99.90;;;;;;5012358;28;19963;-71
2023/04/04 05:54:15;;;;;;;7.22;3.63;;;1.20;99.90;;;;;;5008680;28;20108;-71
2023/04/04 05:56:40;;;;;;;10.55;3.50;;;1.30;99.90;;;;;;5013315;28;20449;-70
2023/04/04 05:59:07;;;;;;;7.82;3.50;;;1.30;99.90;;;;;;5012721;28;20136;-71
2023/04/04 06:01:33;;;;;;;8.52;3.63;;;1.30;99.90;;;;;;5014188;28;20094;-71
2023/04/04 06:03:59;;;;;;;8.40;3.65;;;1.30;99.90;;;;;;5010122;28;20029;-71
2023/04/04 06:06:26;;;;;;;6.68;3.88;;;1.30;99.90;;;;;;5007695;28;20036;-71
2023/04/04 06:08:52;;;;;;;9.35;4.53;;;1.30;99.90;;;;;;5015279;28;20479;-71
2023/04/04 06:11:21;;;;;;;9.45;3.42;;;1.40;99.90;;;;;;5012178;28;20029;-71
2023/04/04 06:13:53;;;;;;;7.78;3.83;;;1.40;99.90;;;;;;5019925;28;20336;-71
2023/04/04 06:16:20;;;;;;;8.30;4.25;;;1.40;99.90;;;;;;5008608;28;20457;-70
2023/04/04 06:18:49;;;;;;;13.00;4.28;;;1.40;99.90;;;;;;5013940;28;20450;-71
2023/04/04 06:21:17;;;;;;;10.05;3.67;;;1.50;99.90;;;;;;5013135;28;20032;-72
2023/04/04 06:23:45;;;;;;;6.30;3.35;;;1.50;99.90;;;;;;5009152;28;20054;-71
2023/04/04 06:26:14;;;;;;;6.63;3.60;;;1.50;99.90;;;;;;5019388;28;20037;-70
2023/04/04 06:28:49;;;;;;;7.53;3.67;;;1.50;99.90;;;;;;5009288;28;20029;-71
2023/04/04 06:31:16;;;;;;;6.03;3.42;;;1.60;99.90;;;;;;5014252;28;20120;-71
2023/04/04 06:33:47;;;;;;;9.82;3.67;;;1.60;99.90;;;;;;5020350;28;20069;-71
2023/04/04 06:36:13;;;;;;;6.15;3.28;;;1.60;99.90;;;;;;5018990;28;20108;-71
2023/04/04 06:38:42;;;;;;;6.22;3.40;;;1.70;99.90;;;;;;5013135;28;20549;-71
2023/04/04 06:41:10;;;;;;;7.75;3.47;;;1.70;99.90;;;;;;5022011;28;20041;-71
2023/04/04 06:43:37;;;;;;;6.32;3.25;;;1.80;99.90;;;;;;5015936;28;20088;-70
2023/04/04 06:46:09;;;;;;;6.82;3.63;;;1.80;99.90;;;;;;5024242;28;20041;-71
2023/04/04 06:48:36;;;;;;;7.00;3.67;;;1.80;99.90;;;;;;5020985;28;20034;-71
2023/04/04 06:51:11;;;;;;;6.15;3.50;;;1.90;99.90;;;;;;5019296;28;20717;-71
2023/04/04 06:53:38;;;;;;;9.55;3.58;;;1.90;99.90;;;;;;5014550;28;20136;-71
2023/04/04 06:56:05;;;;;;;9.68;4.03;;;1.90;99.90;;;;;;5013756;28;20087;-71
2023/04/04 06:58:37;;;;;;;7.43;3.80;;;2.00;99.90;;;;;;5023469;28;20100;-71
2023/04/04 07:01:12;;;;;;;8.85;3.60;;;2.00;99.90;;;;;;5015108;28;20389;-72
2023/04/04 07:03:40;;;;;;;8.88;3.90;;;2.10;99.90;;;;;;5020028;28;20045;-71
2023/04/04 07:06:14;;;;;;;8.30;4.03;;;2.10;99.90;;;;;;5027977;28;20033;-71
2023/04/04 07:08:43;;;;;;;7.00;3.67;;;2.20;99.90;;;;;;5024767;28;20037;-71
2023/04/04 07:11:15;;;;;;;10.38;4.20;;;2.20;99.90;;;;;;5027428;28;20505;-71
2023/04/04 07:13:42;;;;;;;7.35;4.22;;;2.30;99.90;;;;;;5023213;28;20434;-71
2023/04/04 07:16:19;;;;;;;10.60;4.93;;;2.40;99.90;;;;;;5022128;28;20037;-72
2023/04/04 07:18:48;;;;;;;7.57;4.95;;;2.50;99.90;;;;;;5011950;28;20479;-71
2023/04/04 07:21:23;;;;;;;11.25;4.50;;;2.60;99.90;;;;;;5011836;28;20061;-72
2023/04/04 07:23:52;;;;;;;8.35;4.47;;;2.70;99.90;;;;;;5014878;28;20045;-71
2023/04/04 07:26:26;;;;;;;8.13;4.32;;;2.70;99.90;;;;;;5012797;28;20034;-72
2023/04/04 07:28:54;;;;;;;8.60;4.03;;;2.70;99.90;;;;;;5025695;28;20108;-71
2023/04/04 07:31:25;;;;;;;8.63;4.15;;;2.80;99.90;;;;;;5012677;28;20109;-71
2023/04/04 07:33:54;;;;;;;7.65;3.95;;;2.90;99.90;;;;;;5012411;28;20462;-71
2023/04/04 07:36:28;;;;;;;7.00;3.90;;;3.00;99.90;;;;;;5027597;28;20231;-71
2023/04/04 07:38:56;;;;;;;8.43;3.92;;;3.00;99.90;;;;;;5022853;28;20030;-71
2023/04/04 07:41:33;;;;;;;6.72;3.45;;;3.10;99.90;;;;;;5023653;28;20107;-71
2023/04/04 07:44:00;;;;;;;10.38;4.50;;;3.10;99.90;;;;;;5016607;28;20058;-71
2023/04/04 07:46:38;;;;;;;10.73;3.78;;;3.20;99.90;;;;;;5022054;28;20087;-71
2023/04/04 07:49:07;;;;;;;9.55;3.70;;;3.30;99.90;;;;;;5010730;28;20050;-71
2023/04/04 07:51:39;;;;;;;6.57;3.75;;;3.30;99.90;;;;;;5014980;28;20068;-71
2023/04/04 07:54:11;;;;;;;6.53;3.38;;;3.40;99.90;;;;;;5025698;28;20042;-71
2023/04/04 07:56:47;;;;;;;9.18;3.70;;;3.60;99.90;;;;;;5026157;28;20104;-71
2023/04/04 07:59:20;;;;;;;10.48;3.47;;;3.70;99.90;;;;;;5021815;28;20495;-71
2023/04/04 08:01:51;;;;;;;;;;;3.80;99.90;;;;;;5021495;28;20498;-71
2023/04/04 08:04:17;;;;;;;6.03;3.38;;;3.90;99.90;;;;;;5019268;28;19913;-71
2023/04/04 08:06:49;;;;;;;4.53;3.10;;;4.00;99.90;;;;;;5015111;28;20165;-71
2023/04/04 08:09:19;;;;;;;4.87;2.50;;;4.10;99.90;;;;;;5011309;28;20030;-71
2023/04/04 08:11:53;;;;;;;5.60;3.40;;;4.20;99.90;;;;;;5013199;28;20031;-71
2023/04/04 08:14:28;;;;;;;7.38;3.67;;;4.30;99.90;;;;;;5020658;28;20099;-71
2023/04/04 08:17:04;;;;;;;7.82;3.47;;;4.50;99.90;;;;;;5011460;28;20049;-71
2023/04/04 08:19:37;;;;;;;6.78;3.67;;;4.70;99.90;;;;;;5016101;28;20097;-71
2023/04/04 08:22:12;;;;;;;5.13;3.60;;;4.60;99.90;;;;;;5025326;28;20498;-72
2023/04/04 08:24:49;;;;;;;4.43;3.10;;;4.70;99.90;;;;;;5029440;28;20054;-72
2023/04/04 08:27:15;;;;;;;4.70;3.28;;;4.80;99.90;;;;;;5020556;28;20235;-72
2023/04/04 08:29:46;;;;;;;9.57;3.40;;;4.90;99.90;;;;;;5023459;28;20096;-71
2023/04/04 08:32:19;;;;;;;5.80;3.38;;;5.00;99.90;;;;;;5017959;28;20062;-71
2023/04/04 08:34:54;;;;;;;6.05;3.50;;;5.00;99.90;;;;;;5010275;28;20109;-72
2023/04/04 08:37:28;;;;;;;4.70;3.25;;;5.20;99.90;;;;;;5014085;28;20041;-71
2023/04/04 08:40:00;;;;;;;9.05;4.20;;;5.20;99.90;;;;;;5005261;28;20026;-72
2023/04/04 08:42:35;;;;;;;4.75;3.17;;;5.20;99.90;;;;;;5009071;28;20029;-71
2023/04/04 08:45:08;;;;;;;7.38;3.60;;;5.30;99.90;;;;;;5009770;28;20045;-71
2023/04/04 08:47:43;;;;;;;4.78;3.83;;;5.40;99.90;;;;;;5009976;28;20026;-71
2023/04/04 08:50:15;;;;;;;6.35;3.65;;;5.50;99.90;;;;;;5019491;28;20449;-72
2023/04/04 08:52:49;;;;;;;6.25;3.20;;;5.50;99.90;;;;;;5025843;28;20026;-71
2023/04/04 08:55:27;;;;;;;4.97;3.58;;;5.70;99.90;;;;;;5013255;28;20482;-71
2023/04/04 08:57:57;;;;;;;7.85;3.65;;;5.70;99.90;;;;;;5025608;28;20042;-71
2023/04/04 09:00:24;;;;;;;6.97;3.60;;;5.60;99.90;;;;;;5018142;28;20072;-71
2023/04/04 09:03:03;;;;;;;4.18;3.00;;;5.60;98.90;;;;;;5021605;28;20495;-71
2023/04/04 09:05:37;;;;;;;5.22;3.28;;;5.70;98.90;;;;;;5026061;28;20033;-71
2023/04/04 09:08:11;;;;;;;7.35;4.25;;;5.80;99.90;;;;;;5025265;28;20042;-71
2023/04/04 09:10:47;;;;;;;5.55;3.53;;;5.80;98.10;;;;;;5023025;28;20414;-71
2023/04/04 09:13:21;;;;;;;6.03;3.65;;;5.80;98.10;;;;;;5012347;28;20490;-71
2023/04/04 09:15:57;;;;;;;7.43;3.70;;;5.90;97.70;;;;;;5012750;28;20112;-71
2023/04/04 09:18:31;;;;;;;7.82;3.85;;;5.90;99.90;;;;;;5010436;28;20042;-71
2023/04/04 09:21:00;;;;;;;6.45;3.70;;;5.90;99.90;;;;;;5009498;28;20026;-71
2023/04/04 09:23:38;;;;;;;7.82;3.58;;;5.90;99.00;;;;;;5010838;28;20108;-71
2023/04/04 09:26:10;;;;;;;7.82;3.30;;;5.90;97.40;;;;;;5042962;28;20033;-71
2023/04/04 09:28:42;;;;;;;7.47;3.63;;;5.90;99.50;;;;;;5036623;28;20028;-72
2023/04/04 09:31:16;;;;;;;5.68;2.80;;;5.90;99.70;;;;;;5028857;28;20044;-71
2023/04/04 09:33:53;;;;;;;5.70;3.42;;;6.00;97.50;;;;;;5039601;28;20037;-71
2023/04/04 09:36:26;;;;;;;4.70;3.70;;;6.10;98.50;;;;;;5047820;28;20036;-72
2023/04/04 09:39:00;;;;;;;8.48;3.22;;;6.20;98.90;;;;;;5046649;28;20124;-71
2023/04/04 09:41:33;;;;;;;5.60;3.55;;;6.20;96.50;;;;;;5032024;28;20034;-71
2023/04/04 09:44:07;;;;;;;6.38;3.80;;;6.30;96.20;;;;;;5035254;28;20040;-72
2023/04/04 09:46:41;;;;;;;6.47;3.65;;;6.50;97.80;;;;;;5039865;28;20425;-71
2023/04/04 09:49:23;;;;;;;4.38;3.50;;;6.60;96.50;;;;;;5049246;28;20053;-71
2023/04/04 09:51:55;;;;;;;5.43;3.20;;;6.60;95.20;;;;;;5048755;28;20033;-71
2023/04/04 09:54:26;;;;;;;6.75;3.83;;;6.60;97.10;;;;;;5038808;28;20064;-71
2023/04/04 09:57:04;;;;;;;6.80;3.88;;;6.80;98.10;;;;;;5045586;28;20033;-72
2023/04/04 09:59:33;;;;;;;5.13;3.40;;;6.70;97.10;;;;;;5029849;28;20033;-71
2023/04/04 10:02:07;;;;;;;4.97;3.80;;;6.60;94.90;;;;;;5028971;28;20135;-71
2023/04/04 10:04:35;;;;;;;6.95;4.00;;;6.30;98.20;;;;;;5042938;28;20034;-71
2023/04/04 10:07:11;;;;;;;6.93;3.90;;;6.30;98.20;;;;;;5043187;28;20025;-71
2023/04/04 10:09:40;;;;;;;6.68;3.55;;;6.50;97.80;;;;;;5028921;28;20405;-71
2023/04/04 10:12:17;;;;;;;7.03;3.80;;;6.60;96.20;;;;;;5025822;28;20302;-71
2023/04/04 10:14:46;;;;;;;6.97;3.75;;;6.80;97.50;;;;;;5028035;28;20034;-71
2023/04/04 10:17:20;;;;;;;6.00;4.00;;;6.70;94.90;;;;;;5028874;28;20552;-71
2023/04/04 10:19:48;;;;;;;6.47;3.90;;;6.70;93.20;;;;;;5039350;28;20041;-71
2023/04/04 10:22:24;;;;;;;5.97;3.50;;;6.40;94.10;;;;;;5045646;28;20032;-71
2023/04/04 10:24:53;;;;;;;7.43;3.58;;;6.20;94.10;;;;;;5034621;28;20514;-71
2023/04/04 10:27:32;;;;;;;4.18;3.53;;;6.00;97.20;;;;;;5014142;28;20053;-71
2023/04/04 10:30:04;;;;;;;7.85;3.88;;;6.10;98.40;;;;;;5007910;28;20030;-71
2023/04/04 10:32:34;;;;;;;5.78;3.53;;;6.20;96.50;;;;;;5003506;28;20092;-71
2023/04/04 10:35:10;;;;;;;5.78;3.72;;;6.50;96.20;;;;;;5009925;28;20048;-71
2023/04/04 10:37:59;;;;;;;5.47;3.55;;;6.60;93.60;;;;;;5006319;28;20418;-71
2023/04/04 10:40:38;;;;;;;5.75;3.20;;;6.90;96.80;;;;;;5008221;28;20490;-71
2023/04/04 10:43:18;;;;;;;5.25;3.25;;;6.90;96.10;;;;;;5024354;28;20083;-71
2023/04/04 10:45:48;;;;;;;4.93;3.80;;;7.00;91.90;;;;;;5014024;28;20034;-71
2023/04/04 10:48:22;;;;;;;6.78;3.33;;;7.10;98.60;;;;;;5007937;28;20041;-71
2023/04/04 10:50:53;;;;;;;4.57;3.58;;;6.90;95.90;;;;;;5010378;28;20366;-71
2023/04/04 10:53:23;;;;;;;7.40;3.75;;;6.80;98.50;;;;;;5014823;28;20117;-71
2023/04/04 10:56:02;;;;;;;4.85;3.40;;;6.70;95.20;;;;;;5007415;28;20033;-72
2023/04/04 10:58:40;;;;;;;5.93;3.33;;;6.80;95.70;;;;;;5013859;28;20108;-71
2023/04/04 11:01:19;;;;;;;6.05;3.88;;;7.00;92.10;;;;;;5015217;28;20073;-72
2023/04/04 11:04:17;;;;;;;4.38;3.58;;;7.10;93.90;;;;;;5012411;28;20054;-72
2023/04/04 11:07:15;;;;;;;5.18;3.47;;;7.20;90.90;;;;;;5014790;28;20037;-72
2023/04/04 11:09:53;;;;;;;7.28;3.40;;;7.40;92.60;;;;;;5015654;28;20048;-71
2023/04/04 11:12:37;;;;;;;6.88;3.80;;;7.60;91.10;;;;;;5017403;28;20064;-71
2023/04/04 11:15:08;;;;;;;5.10;3.35;;;7.70;89.90;;;;;;5027564;28;20042;-72
2023/04/04 11:17:58;;;;;;;5.05;3.25;;;7.50;94.70;;;;;;5024541;28;20106;-71
2023/04/04 11:20:39;;;;;;;5.47;3.50;;;7.60;91.00;;;;;;5008826;28;20062;-72
2023/04/04 11:23:15;;;;;;;5.97;3.90;;;7.30;89.00;;;;;;5008012;28;20049;-71
2023/04/04 11:25:54;;;;;;;4.72;3.30;;;7.30;88.60;;;;;;5011650;28;20041;-71
2023/04/04 11:28:34;;;;;;;5.90;3.67;;;7.30;89.00;;;;;;5017828;28;20437;-71
2023/04/04 11:31:31;;;;;;;5.32;3.40;;;7.50;87.20;;;;;;5028203;28;20083;-71
2023/04/04 11:34:15;;;;;;;4.47;2.85;;;7.60;91.60;;;;;;5012445;28;20049;-71
2023/04/04 11:36:43;;;;;;;4.03;3.40;;;7.70;90.40;;;;;;5017159;28;20022;-71
2023/04/04 11:39:23;;;;;;;5.80;3.50;;;7.80;91.10;;;;;;5011055;28;20061;-71
2023/04/04 11:42:05;;;;;;;4.78;3.55;;;8.00;91.10;;;;;;5011332;28;20502;-71
2023/04/04 11:44:53;;;;;;;5.07;3.35;;;8.10;91.00;;;;;;5013296;28;20041;-71
2023/04/04 11:47:30;;;;;;;5.65;3.42;;;8.30;88.80;;;;;;5010008;28;20125;-71
2023/04/04 11:50:13;;;;;;;4.60;3.45;;;8.30;90.20;;;;;;5011291;28;20129;-72
2023/04/04 11:52:40;;;;;;;;;;;8.10;90.20;;;;;;5026425;28;20498;-72
2023/04/04 11:55:21;;;;;;;4.28;3.05;;;8.00;92.70;;;;;;5026075;28;20494;-71
2023/04/04 11:57:57;;;;;;;6.97;3.03;;;8.00;89.00;;;;;;5011513;28;20038;-71
2023/04/04 12:00:34;;;;;;;6.47;3.22;;;8.10;84.50;;;;;;5012412;28;20042;-71
2023/04/04 12:03:10;;;;;;;5.43;3.25;;;8.10;90.40;;;;;;5013925;28;20401;-72
2023/04/04 12:05:41;;;;;;;4.00;3.08;;;8.00;86.80;;;;;;5024779;28;20030;-71
2023/04/04 12:08:16;;;;;;;4.18;2.92;;;8.00;89.80;;;;;;5019334;28;20056;-71
2023/04/04 12:10:56;;;;;;;3.88;3.05;;;8.10;90.10;;;;;;5022972;28;20400;-72
2023/04/04 12:13:35;;;;;;;6.57;3.50;;;8.20;88.60;;;;;;5016607;28;20029;-71
2023/04/04 12:16:10;;;;;;;4.22;3.05;;;8.30;84.80;;;;;;5017674;28;20056;-72
2023/04/04 12:18:46;;;;;;;5.82;3.55;;;8.20;80.40;;;;;;5019319;28;20050;-71
2023/04/04 12:21:20;;;;;;;5.50;3.28;;;8.30;90.10;;;;;;5010456;28;20046;-71
2023/04/04 12:23:50;;;;;;;4.53;3.50;;;8.30;85.90;;;;;;5010338;28;20113;-72
2023/04/04 12:26:28;;;;;;;7.43;3.45;;;8.30;83.40;;;;;;5028543;28;20037;-71
2023/04/04 12:29:04;;;;;;;5.53;3.35;;;8.40;80.50;;;;;;5022965;28;20025;-71
2023/04/04 12:31:40;;;;;;;5.47;3.38;;;8.70;79.50;;;;;;5019722;28;20030;-71
2023/04/04 12:34:29;;;;;;;3.90;2.90;;;8.80;79.20;;;;;;5014171;28;20025;-71
2023/04/04 12:37:08;;;;;;;6.43;3.40;;;9.10;79.50;;;;;;5015206;28;20394;-71
2023/04/04 12:39:48;;;;;;;5.72;3.58;;;10.70;78.60;;;;;;5019320;28;20041;-71
2023/04/04 12:42:27;;;;;;;6.50;3.50;;;9.40;78.80;;;;;;5021018;28;20037;-71
2023/04/04 12:45:04;;;;;;;5.88;3.47;;;9.40;81.90;;;;;;5010080;28;20077;-71
2023/04/04 12:47:50;;;;;;;4.88;3.50;;;9.30;82.50;;;;;;5013822;28;20109;-71
2023/04/04 12:50:30;;;;;;;7.78;3.60;;;9.10;86.10;;;;;;5024100;28;20021;-71
2023/04/04 12:52:59;;;;;;;6.07;3.35;;;9.00;81.00;;;;;;5016301;28;20029;-71
2023/04/04 12:55:35;;;;;;;4.47;2.88;;;9.10;77.50;;;;;;5025919;28;20033;-71
2023/04/04 12:58:11;;;;;;;6.05;3.50;;;9.20;74.60;;;;;;5029754;28;20107;-71
2023/04/04 13:00:43;;;;;;;5.28;3.30;;;9.20;78.90;;;;;;5010755;28;20042;-71
2023/04/04 13:03:13;;;;;;;4.93;3.30;;;9.30;76.90;;;;;;4319533;28;10000762;-70
2023/04/04 13:05:41;;;;;;;6.25;3.25;;;9.30;76.80;;;;;;5013803;28;20413;-71
2023/04/04 13:08:13;;;;;;;6.05;3.70;;;9.40;77.80;;;;;;5009115;28;20022;-71
2023/04/04 13:11:04;;;;;;;3.97;3.17;;;9.60;75.90;;;;;;5015410;28;20048;-72
2023/04/04 13:13:44;;;;;;;4.68;3.05;;;9.70;78.80;;;;;;5014478;28;20021;-72
2023/04/04 13:16:34;;;;;;;4.70;3.17;;;9.70;74.20;;;;;;5019274;28;20079;-71
2023/04/04 13:19:05;;;;;;;4.82;3.30;;;10.00;71.60;;;;;;5003924;28;20426;-71
2023/04/04 13:21:33;;;;;;;4.45;3.22;;;10.10;74.90;;;;;;5014906;28;20502;-71
2023/04/04 13:24:08;;;;;;;5.18;3.25;;;10.00;79.40;;;;;;5006052;28;20469;-72
2023/04/04 13:26:44;;;;;;;4.50;3.20;;;9.90;80.30;;;;;;5008966;28;20208;-72